sensor_id;sensor_type;location;lat;lon;timestamp;P1;durP1;ratioP1;P2;durP2;ratioP2
5912;SDS011;2982;42.684;23.356;2022-08-30T00:01:57;11.57;;;10.45;;
5912;SDS011;2982;42.684;23.356;2022-08-30T00:04:22;13.57;;;10.45;;
5912;SDS011;2982;42.684;23.356;2022-08-30T00:06:47;11.32;;;10.13;;
5912;SDS011;2982;42.684;23.356;2022-08-30T00:09:13;10.68;;;9.75;;
5912;SDS011;2982;42.684;23.356;2022-08-30T00:11:38;10.20;;;9.25;;
5912;SDS011;2982;42.684;23.356;2022-08-30T00:14:03;9.52;;;8.82;;
5912;SDS011;2982;42.684;23.356;2022-08-30T00:16:28;9.43;;;8.50;;
5912;SDS011;2982;42.684;23.356;2022-08-30T00:18:54;9.68;;;8.88;;
5912;SDS011;2982;42.684;23.356;2022-08-30T00:21:19;10.23;;;9.48;;
5912;SDS011;2982;42.684;23.356;2022-08-30T00:23:45;11.57;;;10.05;;
5912;SDS011;2982;42.684;23.356;2022-08-30T00:26:10;12.77;;;10.05;;
5912;SDS011;2982;42.684;23.356;2022-08-30T00:28:36;10.52;;;9.57;;
5912;SDS011;2982;42.684;23.356;2022-08-30T00:31:01;10.13;;;9.48;;
5912;SDS011;2982;42.684;23.356;2022-08-30T00:33:27;13.32;;;10.52;;
5912;SDS011;2982;42.684;23.356;2022-08-30T00:35:53;10.90;;;9.88;;
5912;SDS011;2982;42.684;23.356;2022-08-30T00:38:19;11.07;;;9.77;;
5912;SDS011;2982;42.684;23.356;2022-08-30T00:40:45;11.02;;;9.45;;
5912;SDS011;2982;42.684;23.356;2022-08-30T00:43:16;11.30;;;10.25;;
5912;SDS011;2982;42.684;23.356;2022-08-30T00:45:45;11.50;;;10.60;;
5912;SDS011;2982;42.684;23.356;2022-08-30T00:48:10;16.05;;;10.93;;
5912;SDS011;2982;42.684;23.356;2022-08-30T00:50:40;11.40;;;10.48;;
5912;SDS011;2982;42.684;23.356;2022-08-30T00:53:10;12.45;;;10.77;;
5912;SDS011;2982;42.684;23.356;2022-08-30T00:55:39;12.13;;;10.77;;
5912;SDS011;2982;42.684;23.356;2022-08-30T00:58:06;17.45;;;12.93;;
5912;SDS011;2982;42.684;23.356;2022-08-30T01:00:34;10.45;;;9.68;;
5912;SDS011;2982;42.684;23.356;2022-08-30T01:03:00;12.55;;;11.25;;
5912;SDS011;2982;42.684;23.356;2022-08-30T01:05:25;12.20;;;10.90;;
5912;SDS011;2982;42.684;23.356;2022-08-30T01:07:51;13.50;;;10.68;;
5912;SDS011;2982;42.684;23.356;2022-08-30T01:10:16;15.55;;;10.93;;
5912;SDS011;2982;42.684;23.356;2022-08-30T01:12:42;12.13;;;11.23;;
5912;SDS011;2982;42.684;23.356;2022-08-30T01:15:09;21.42;;;11.02;;
5912;SDS011;2982;42.684;23.356;2022-08-30T01:17:37;11.30;;;10.38;;
5912;SDS011;2982;42.684;23.356;2022-08-30T01:20:13;12.25;;;11.10;;
5912;SDS011;2982;42.684;23.356;2022-08-30T01:25:21;11.43;;;10.68;;
5912;SDS011;2982;42.684;23.356;2022-08-30T01:27:52;11.60;;;10.15;;
5912;SDS011;2982;42.684;23.356;2022-08-30T01:30:21;10.93;;;10.13;;
5912;SDS011;2982;42.684;23.356;2022-08-30T01:32:46;11.65;;;10.70;;
5912;SDS011;2982;42.684;23.356;2022-08-30T01:35:14;13.57;;;12.32;;
5912;SDS011;2982;42.684;23.356;2022-08-30T01:37:40;15.77;;;14.20;;
5912;SDS011;2982;42.684;23.356;2022-08-30T01:40:08;15.40;;;13.90;;
5912;SDS011;2982;42.684;23.356;2022-08-30T01:42:33;16.23;;;14.80;;
5912;SDS011;2982;42.684;23.356;2022-08-30T01:44:59;20.10;;;13.95;;
5912;SDS011;2982;42.684;23.356;2022-08-30T01:47:24;15.13;;;13.52;;
5912;SDS011;2982;42.684;23.356;2022-08-30T01:49:50;15.48;;;13.43;;
5912;SDS011;2982;42.684;23.356;2022-08-30T01:52:17;14.95;;;12.48;;
5912;SDS011;2982;42.684;23.356;2022-08-30T01:54:44;14.55;;;12.07;;
5912;SDS011;2982;42.684;23.356;2022-08-30T01:57:12;12.38;;;11.57;;
5912;SDS011;2982;42.684;23.356;2022-08-30T01:59:41;13.50;;;12.15;;
5912;SDS011;2982;42.684;23.356;2022-08-30T02:02:07;14.77;;;12.63;;
5912;SDS011;2982;42.684;23.356;2022-08-30T02:04:34;15.93;;;13.05;;
5912;SDS011;2982;42.684;23.356;2022-08-30T02:06:59;16.17;;;12.40;;
5912;SDS011;2982;42.684;23.356;2022-08-30T02:09:25;12.30;;;11.27;;
5912;SDS011;2982;42.684;23.356;2022-08-30T02:11:50;13.13;;;12.02;;
5912;SDS011;2982;42.684;23.356;2022-08-30T02:14:15;13.45;;;12.15;;
5912;SDS011;2982;42.684;23.356;2022-08-30T02:16:40;18.55;;;12.45;;
5912;SDS011;2982;42.684;23.356;2022-08-30T02:19:06;13.98;;;12.25;;
5912;SDS011;2982;42.684;23.356;2022-08-30T02:21:32;14.32;;;12.90;;
5912;SDS011;2982;42.684;23.356;2022-08-30T02:23:58;14.38;;;12.95;;
5912;SDS011;2982;42.684;23.356;2022-08-30T02:26:23;14.55;;;13.55;;
5912;SDS011;2982;42.684;23.356;2022-08-30T02:28:50;14.93;;;13.15;;
5912;SDS011;2982;42.684;23.356;2022-08-30T02:31:18;15.32;;;13.82;;
5912;SDS011;2982;42.684;23.356;2022-08-30T02:33:44;14.10;;;12.95;;
5912;SDS011;2982;42.684;23.356;2022-08-30T02:36:10;16.70;;;14.70;;
5912;SDS011;2982;42.684;23.356;2022-08-30T02:38:35;15.77;;;13.82;;
5912;SDS011;2982;42.684;23.356;2022-08-30T02:41:00;15.75;;;14.20;;
5912;SDS011;2982;42.684;23.356;2022-08-30T02:43:26;14.75;;;13.27;;
5912;SDS011;2982;42.684;23.356;2022-08-30T02:45:51;17.35;;;14.63;;
5912;SDS011;2982;42.684;23.356;2022-08-30T02:48:17;19.83;;;12.77;;
5912;SDS011;2982;42.684;23.356;2022-08-30T02:50:43;14.77;;;13.38;;
5912;SDS011;2982;42.684;23.356;2022-08-30T02:53:11;15.98;;;14.50;;
5912;SDS011;2982;42.684;23.356;2022-08-30T02:55:37;16.25;;;14.27;;
5912;SDS011;2982;42.684;23.356;2022-08-30T02:58:02;16.25;;;14.75;;
5912;SDS011;2982;42.684;23.356;2022-08-30T03:00:28;16.63;;;14.95;;
5912;SDS011;2982;42.684;23.356;2022-08-30T03:02:53;20.33;;;16.08;;
5912;SDS011;2982;42.684;23.356;2022-08-30T03:05:19;16.50;;;14.90;;
5912;SDS011;2982;42.684;23.356;2022-08-30T03:07:44;17.10;;;15.50;;
5912;SDS011;2982;42.684;23.356;2022-08-30T03:10:10;17.27;;;15.43;;
5912;SDS011;2982;42.684;23.356;2022-08-30T03:12:36;16.98;;;15.50;;
5912;SDS011;2982;42.684;23.356;2022-08-30T03:15:02;16.95;;;14.48;;
5912;SDS011;2982;42.684;23.356;2022-08-30T03:17:29;15.15;;;13.82;;
5912;SDS011;2982;42.684;23.356;2022-08-30T03:19:54;16.27;;;14.60;;
5912;SDS011;2982;42.684;23.356;2022-08-30T03:22:19;15.27;;;13.93;;
5912;SDS011;2982;42.684;23.356;2022-08-30T03:24:45;15.65;;;14.20;;
5912;SDS011;2982;42.684;23.356;2022-08-30T03:27:10;15.90;;;14.15;;
5912;SDS011;2982;42.684;23.356;2022-08-30T03:29:36;16.23;;;14.57;;
5912;SDS011;2982;42.684;23.356;2022-08-30T03:32:02;16.92;;;14.15;;
5912;SDS011;2982;42.684;23.356;2022-08-30T03:34:27;16.52;;;14.95;;
5912;SDS011;2982;42.684;23.356;2022-08-30T03:36:53;16.15;;;14.55;;
5912;SDS011;2982;42.684;23.356;2022-08-30T03:39:21;15.38;;;13.85;;
5912;SDS011;2982;42.684;23.356;2022-08-30T03:41:47;17.95;;;15.13;;
5912;SDS011;2982;42.684;23.356;2022-08-30T03:44:13;16.52;;;14.82;;
5912;SDS011;2982;42.684;23.356;2022-08-30T03:46:38;15.95;;;14.50;;
5912;SDS011;2982;42.684;23.356;2022-08-30T03:49:04;16.40;;;13.82;;
5912;SDS011;2982;42.684;23.356;2022-08-30T03:51:30;16.40;;;14.65;;
5912;SDS011;2982;42.684;23.356;2022-08-30T03:53:55;19.33;;;14.90;;
5912;SDS011;2982;42.684;23.356;2022-08-30T03:56:20;16.58;;;14.98;;
5912;SDS011;2982;42.684;23.356;2022-08-30T03:58:46;16.75;;;15.13;;
5912;SDS011;2982;42.684;23.356;2022-08-30T04:01:11;17.20;;;14.55;;
5912;SDS011;2982;42.684;23.356;2022-08-30T04:03:37;19.85;;;14.38;;
5912;SDS011;2982;42.684;23.356;2022-08-30T04:06:02;16.60;;;14.80;;
5912;SDS011;2982;42.684;23.356;2022-08-30T04:08:28;19.67;;;16.52;;
5912;SDS011;2982;42.684;23.356;2022-08-30T04:10:54;21.73;;;16.73;;
5912;SDS011;2982;42.684;23.356;2022-08-30T04:13:19;18.92;;;16.83;;
5912;SDS011;2982;42.684;23.356;2022-08-30T04:15:45;17.35;;;15.77;;
5912;SDS011;2982;42.684;23.356;2022-08-30T04:18:11;17.80;;;16.05;;
5912;SDS011;2982;42.684;23.356;2022-08-30T04:20:36;17.00;;;15.40;;
5912;SDS011;2982;42.684;23.356;2022-08-30T04:23:03;16.83;;;15.02;;
5912;SDS011;2982;42.684;23.356;2022-08-30T04:25:29;15.68;;;14.38;;
5912;SDS011;2982;42.684;23.356;2022-08-30T04:27:54;16.02;;;14.73;;
5912;SDS011;2982;42.684;23.356;2022-08-30T04:30:20;16.50;;;14.85;;
5912;SDS011;2982;42.684;23.356;2022-08-30T04:32:45;16.02;;;14.35;;
5912;SDS011;2982;42.684;23.356;2022-08-30T04:35:10;17.13;;;14.77;;
5912;SDS011;2982;42.684;23.356;2022-08-30T04:37:36;15.63;;;14.32;;
5912;SDS011;2982;42.684;23.356;2022-08-30T04:40:03;15.95;;;14.20;;
5912;SDS011;2982;42.684;23.356;2022-08-30T04:42:30;17.15;;;15.05;;
5912;SDS011;2982;42.684;23.356;2022-08-30T04:44:58;19.45;;;15.48;;
5912;SDS011;2982;42.684;23.356;2022-08-30T04:47:25;20.95;;;16.30;;
5912;SDS011;2982;42.684;23.356;2022-08-30T04:49:51;17.15;;;15.45;;
5912;SDS011;2982;42.684;23.356;2022-08-30T04:52:17;17.13;;;15.27;;
5912;SDS011;2982;42.684;23.356;2022-08-30T04:54:42;17.77;;;15.77;;
5912;SDS011;2982;42.684;23.356;2022-08-30T04:57:08;16.80;;;15.25;;
5912;SDS011;2982;42.684;23.356;2022-08-30T04:59:33;18.00;;;15.95;;
5912;SDS011;2982;42.684;23.356;2022-08-30T05:01:58;18.58;;;13.90;;
5912;SDS011;2982;42.684;23.356;2022-08-30T05:04:24;17.70;;;15.95;;
5912;SDS011;2982;42.684;23.356;2022-08-30T05:06:49;18.50;;;16.20;;
5912;SDS011;2982;42.684;23.356;2022-08-30T05:09:15;17.35;;;15.30;;
5912;SDS011;2982;42.684;23.356;2022-08-30T05:11:40;17.08;;;15.32;;
5912;SDS011;2982;42.684;23.356;2022-08-30T05:14:06;24.00;;;15.00;;
5912;SDS011;2982;42.684;23.356;2022-08-30T05:16:31;17.90;;;16.05;;
5912;SDS011;2982;42.684;23.356;2022-08-30T05:18:56;18.20;;;16.50;;
5912;SDS011;2982;42.684;23.356;2022-08-30T05:21:23;17.00;;;15.40;;
5912;SDS011;2982;42.684;23.356;2022-08-30T05:23:49;19.67;;;15.73;;
5912;SDS011;2982;42.684;23.356;2022-08-30T05:26:30;19.67;;;15.82;;
5912;SDS011;2982;42.684;23.356;2022-08-30T05:28:57;20.05;;;15.85;;
5912;SDS011;2982;42.684;23.356;2022-08-30T05:31:24;17.05;;;15.55;;
5912;SDS011;2982;42.684;23.356;2022-08-30T05:33:51;20.17;;;15.52;;
5912;SDS011;2982;42.684;23.356;2022-08-30T05:36:18;19.45;;;15.82;;
5912;SDS011;2982;42.684;23.356;2022-08-30T05:38:45;18.25;;;15.77;;
5912;SDS011;2982;42.684;23.356;2022-08-30T05:41:10;17.13;;;15.27;;
5912;SDS011;2982;42.684;23.356;2022-08-30T05:43:36;16.90;;;15.27;;
5912;SDS011;2982;42.684;23.356;2022-08-30T05:46:03;18.60;;;15.00;;
5912;SDS011;2982;42.684;23.356;2022-08-30T05:48:32;18.13;;;14.98;;
5912;SDS011;2982;42.684;23.356;2022-08-30T05:53:29;16.45;;;14.55;;
5912;SDS011;2982;42.684;23.356;2022-08-30T05:55:54;17.75;;;14.85;;
5912;SDS011;2982;42.684;23.356;2022-08-30T05:58:19;16.48;;;14.82;;
5912;SDS011;2982;42.684;23.356;2022-08-30T06:00:45;17.88;;;14.77;;
5912;SDS011;2982;42.684;23.356;2022-08-30T06:03:10;16.95;;;15.30;;
5912;SDS011;2982;42.684;23.356;2022-08-30T06:05:36;16.45;;;13.32;;
5912;SDS011;2982;42.684;23.356;2022-08-30T06:08:01;14.35;;;12.82;;
5912;SDS011;2982;42.684;23.356;2022-08-30T06:10:26;15.82;;;13.00;;
5912;SDS011;2982;42.684;23.356;2022-08-30T06:12:52;15.07;;;12.73;;
5912;SDS011;2982;42.684;23.356;2022-08-30T06:15:17;13.93;;;12.57;;
5912;SDS011;2982;42.684;23.356;2022-08-30T06:17:42;15.18;;;13.55;;
5912;SDS011;2982;42.684;23.356;2022-08-30T06:20:08;15.65;;;13.50;;
5912;SDS011;2982;42.684;23.356;2022-08-30T06:22:34;14.77;;;13.25;;
5912;SDS011;2982;42.684;23.356;2022-08-30T06:24:59;14.68;;;13.25;;
5912;SDS011;2982;42.684;23.356;2022-08-30T06:27:24;14.93;;;13.38;;
5912;SDS011;2982;42.684;23.356;2022-08-30T06:29:50;18.20;;;14.07;;
5912;SDS011;2982;42.684;23.356;2022-08-30T06:32:16;14.90;;;13.55;;
5912;SDS011;2982;42.684;23.356;2022-08-30T06:34:42;15.73;;;14.23;;
5912;SDS011;2982;42.684;23.356;2022-08-30T06:37:07;16.58;;;15.15;;
5912;SDS011;2982;42.684;23.356;2022-08-30T06:39:32;20.15;;;15.55;;
5912;SDS011;2982;42.684;23.356;2022-08-30T06:41:57;16.35;;;14.77;;
5912;SDS011;2982;42.684;23.356;2022-08-30T06:44:23;18.00;;;16.20;;
5912;SDS011;2982;42.684;23.356;2022-08-30T06:46:48;19.02;;;17.00;;
5912;SDS011;2982;42.684;23.356;2022-08-30T06:49:13;18.52;;;15.73;;
5912;SDS011;2982;42.684;23.356;2022-08-30T06:51:39;17.33;;;15.60;;
5912;SDS011;2982;42.684;23.356;2022-08-30T06:54:04;17.50;;;14.75;;
5912;SDS011;2982;42.684;23.356;2022-08-30T06:56:31;20.02;;;15.57;;
5912;SDS011;2982;42.684;23.356;2022-08-30T06:58:56;16.40;;;14.63;;
5912;SDS011;2982;42.684;23.356;2022-08-30T07:01:25;17.88;;;15.93;;
5912;SDS011;2982;42.684;23.356;2022-08-30T07:03:51;17.90;;;15.93;;
5912;SDS011;2982;42.684;23.356;2022-08-30T07:06:17;18.45;;;16.13;;
5912;SDS011;2982;42.684;23.356;2022-08-30T07:08:43;17.30;;;14.48;;
5912;SDS011;2982;42.684;23.356;2022-08-30T07:11:09;17.65;;;15.82;;
5912;SDS011;2982;42.684;23.356;2022-08-30T07:13:35;17.75;;;15.80;;
5912;SDS011;2982;42.684;23.356;2022-08-30T07:16:07;18.63;;;14.32;;
5912;SDS011;2982;42.684;23.356;2022-08-30T07:18:33;17.67;;;15.48;;
5912;SDS011;2982;42.684;23.356;2022-08-30T07:21:04;16.15;;;14.63;;
5912;SDS011;2982;42.684;23.356;2022-08-30T07:23:32;19.88;;;15.38;;
5912;SDS011;2982;42.684;23.356;2022-08-30T07:25:57;22.40;;;17.33;;
5912;SDS011;2982;42.684;23.356;2022-08-30T07:28:22;19.25;;;17.50;;
5912;SDS011;2982;42.684;23.356;2022-08-30T07:30:47;20.42;;;17.15;;
5912;SDS011;2982;42.684;23.356;2022-08-30T07:33:13;19.00;;;16.08;;
5912;SDS011;2982;42.684;23.356;2022-08-30T07:35:38;20.67;;;17.77;;
5912;SDS011;2982;42.684;23.356;2022-08-30T07:38:03;18.33;;;16.40;;
5912;SDS011;2982;42.684;23.356;2022-08-30T07:40:29;26.02;;;16.63;;
5912;SDS011;2982;42.684;23.356;2022-08-30T07:42:54;19.65;;;15.60;;
5912;SDS011;2982;42.684;23.356;2022-08-30T07:45:19;17.08;;;15.32;;
5912;SDS011;2982;42.684;23.356;2022-08-30T07:47:45;16.98;;;15.38;;
5912;SDS011;2982;42.684;23.356;2022-08-30T07:50:10;16.55;;;15.15;;
5912;SDS011;2982;42.684;23.356;2022-08-30T07:52:36;18.40;;;15.68;;
5912;SDS011;2982;42.684;23.356;2022-08-30T07:55:01;17.83;;;15.48;;
5912;SDS011;2982;42.684;23.356;2022-08-30T07:57:27;17.77;;;14.38;;
5912;SDS011;2982;42.684;23.356;2022-08-30T07:59:53;16.02;;;14.50;;
5912;SDS011;2982;42.684;23.356;2022-08-30T08:02:18;16.77;;;14.93;;
5912;SDS011;2982;42.684;23.356;2022-08-30T08:04:44;16.25;;;14.52;;
5912;SDS011;2982;42.684;23.356;2022-08-30T08:07:10;17.38;;;15.20;;
5912;SDS011;2982;42.684;23.356;2022-08-30T08:09:36;15.55;;;13.88;;
5912;SDS011;2982;42.684;23.356;2022-08-30T08:12:02;15.10;;;13.48;;
5912;SDS011;2982;42.684;23.356;2022-08-30T08:14:29;18.85;;;14.50;;
5912;SDS011;2982;42.684;23.356;2022-08-30T08:16:55;17.10;;;13.95;;
5912;SDS011;2982;42.684;23.356;2022-08-30T08:19:20;16.25;;;13.80;;
5912;SDS011;2982;42.684;23.356;2022-08-30T08:21:45;15.57;;;13.95;;
5912;SDS011;2982;42.684;23.356;2022-08-30T08:24:11;15.75;;;13.85;;
5912;SDS011;2982;42.684;23.356;2022-08-30T08:26:37;23.67;;;15.23;;
5912;SDS011;2982;42.684;23.356;2022-08-30T08:29:03;16.02;;;14.18;;
5912;SDS011;2982;42.684;23.356;2022-08-30T08:31:30;17.17;;;14.70;;
5912;SDS011;2982;42.684;23.356;2022-08-30T08:33:56;16.27;;;14.73;;
5912;SDS011;2982;42.684;23.356;2022-08-30T08:36:21;16.95;;;15.10;;
5912;SDS011;2982;42.684;23.356;2022-08-30T08:38:47;24.17;;;16.00;;
5912;SDS011;2982;42.684;23.356;2022-08-30T08:44:17;18.15;;;16.33;;
5912;SDS011;2982;42.684;23.356;2022-08-30T08:49:26;19.55;;;16.48;;
5912;SDS011;2982;42.684;23.356;2022-08-30T08:51:52;21.35;;;16.60;;
5912;SDS011;2982;42.684;23.356;2022-08-30T08:54:24;22.25;;;16.92;;
5912;SDS011;2982;42.684;23.356;2022-08-30T08:56:57;23.17;;;16.10;;
5912;SDS011;2982;42.684;23.356;2022-08-30T08:59:24;21.33;;;17.38;;
5912;SDS011;2982;42.684;23.356;2022-08-30T09:01:49;19.08;;;16.85;;
5912;SDS011;2982;42.684;23.356;2022-08-30T09:04:16;22.10;;;17.70;;
5912;SDS011;2982;42.684;23.356;2022-08-30T09:06:53;21.08;;;16.92;;
5912;SDS011;2982;42.684;23.356;2022-08-30T09:09:23;29.05;;;18.67;;
5912;SDS011;2982;42.684;23.356;2022-08-30T09:11:53;23.77;;;18.83;;
5912;SDS011;2982;42.684;23.356;2022-08-30T09:14:20;24.17;;;19.10;;
5912;SDS011;2982;42.684;23.356;2022-08-30T09:24:36;19.83;;;17.75;;
5912;SDS011;2982;42.684;23.356;2022-08-30T09:27:15;24.02;;;18.50;;
5912;SDS011;2982;42.684;23.356;2022-08-30T09:29:48;21.40;;;19.10;;
5912;SDS011;2982;42.684;23.356;2022-08-30T09:32:22;20.65;;;18.25;;
5912;SDS011;2982;42.684;23.356;2022-08-30T09:34:48;19.98;;;17.60;;
5912;SDS011;2982;42.684;23.356;2022-08-30T09:39:54;17.67;;;16.02;;
5912;SDS011;2982;42.684;23.356;2022-08-30T09:42:25;19.52;;;16.15;;
5912;SDS011;2982;42.684;23.356;2022-08-30T09:44:52;21.45;;;15.02;;
5912;SDS011;2982;42.684;23.356;2022-08-30T09:47:29;19.80;;;15.82;;
5912;SDS011;2982;42.684;23.356;2022-08-30T09:50:03;16.55;;;14.95;;
5912;SDS011;2982;42.684;23.356;2022-08-30T09:55:14;24.27;;;15.52;;
5912;SDS011;2982;42.684;23.356;2022-08-30T10:04:13;18.13;;;15.90;;
5912;SDS011;2982;42.684;23.356;2022-08-30T10:06:27;21.48;;;15.45;;
5912;SDS011;2982;42.684;23.356;2022-08-30T10:19:42;21.88;;;15.18;;
5912;SDS011;2982;42.684;23.356;2022-08-30T10:22:15;16.50;;;14.77;;
5912;SDS011;2982;42.684;23.356;2022-08-30T10:24:52;15.85;;;14.27;;
5912;SDS011;2982;42.684;23.356;2022-08-30T10:27:27;24.05;;;14.73;;
5912;SDS011;2982;42.684;23.356;2022-08-30T10:30:00;16.90;;;14.13;;
5912;SDS011;2982;42.684;23.356;2022-08-30T10:32:29;16.25;;;13.75;;
5912;SDS011;2982;42.684;23.356;2022-08-30T10:35:07;22.90;;;15.90;;
5912;SDS011;2982;42.684;23.356;2022-08-30T10:37:40;20.65;;;14.68;;
5912;SDS011;2982;42.684;23.356;2022-08-30T10:40:14;17.92;;;13.50;;
5912;SDS011;2982;42.684;23.356;2022-08-30T10:42:49;15.15;;;13.73;;
5912;SDS011;2982;42.684;23.356;2022-08-30T10:45:16;17.60;;;12.43;;
5912;SDS011;2982;42.684;23.356;2022-08-30T10:50:39;17.65;;;12.05;;
5912;SDS011;2982;42.684;23.356;2022-08-30T10:53:11;13.13;;;11.80;;
5912;SDS011;2982;42.684;23.356;2022-08-30T10:55:43;15.35;;;11.57;;
5912;SDS011;2982;42.684;23.356;2022-08-30T10:58:15;16.55;;;12.95;;
5912;SDS011;2982;42.684;23.356;2022-08-30T11:00:53;13.63;;;12.05;;
5912;SDS011;2982;42.684;23.356;2022-08-30T11:03:41;15.52;;;12.35;;
5912;SDS011;2982;42.684;23.356;2022-08-30T11:12:30;14.63;;;12.40;;
5912;SDS011;2982;42.684;23.356;2022-08-30T11:15:23;16.17;;;12.68;;
5912;SDS011;2982;42.684;23.356;2022-08-30T11:18:05;13.85;;;11.88;;
5912;SDS011;2982;42.684;23.356;2022-08-30T11:23:37;12.93;;;11.10;;
5912;SDS011;2982;42.684;23.356;2022-08-30T11:26:00;15.60;;;11.80;;
5912;SDS011;2982;42.684;23.356;2022-08-30T11:33:37;11.65;;;9.68;;
5912;SDS011;2982;42.684;23.356;2022-08-30T11:36:05;13.50;;;10.05;;
5912;SDS011;2982;42.684;23.356;2022-08-30T11:48:44;13.13;;;10.05;;
5912;SDS011;2982;42.684;23.356;2022-08-30T11:51:36;13.40;;;9.68;;
5912;SDS011;2982;42.684;23.356;2022-08-30T11:54:07;11.70;;;9.25;;
5912;SDS011;2982;42.684;23.356;2022-08-30T11:56:44;10.07;;;9.15;;
5912;SDS011;2982;42.684;23.356;2022-08-30T11:59:25;12.70;;;9.00;;
5912;SDS011;2982;42.684;23.356;2022-08-30T12:01:52;10.07;;;9.10;;
5912;SDS011;2982;42.684;23.356;2022-08-30T12:06:44;12.13;;;9.48;;
5912;SDS011;2982;42.684;23.356;2022-08-30T12:09:11;16.38;;;9.35;;
5912;SDS011;2982;42.684;23.356;2022-08-30T12:12:04;12.25;;;8.60;;
5912;SDS011;2982;42.684;23.356;2022-08-30T12:18:06;13.13;;;8.25;;
5912;SDS011;2982;42.684;23.356;2022-08-30T12:22:46;9.27;;;8.38;;
5912;SDS011;2982;42.684;23.356;2022-08-30T12:25:12;11.70;;;9.43;;
5912;SDS011;2982;42.684;23.356;2022-08-30T12:27:42;11.75;;;8.88;;
5912;SDS011;2982;42.684;23.356;2022-08-30T12:30:08;12.05;;;9.02;;
5912;SDS011;2982;42.684;23.356;2022-08-30T12:32:36;18.48;;;11.05;;
5912;SDS011;2982;42.684;23.356;2022-08-30T12:35:15;14.55;;;10.23;;
5912;SDS011;2982;42.684;23.356;2022-08-30T12:37:44;15.30;;;10.52;;
5912;SDS011;2982;42.684;23.356;2022-08-30T12:40:23;11.77;;;10.65;;
5912;SDS011;2982;42.684;23.356;2022-08-30T12:42:54;11.20;;;10.02;;
5912;SDS011;2982;42.684;23.356;2022-08-30T12:45:26;12.00;;;10.73;;
5912;SDS011;2982;42.684;23.356;2022-08-30T12:48:02;11.45;;;10.55;;
5912;SDS011;2982;42.684;23.356;2022-08-30T12:50:35;12.23;;;10.82;;
5912;SDS011;2982;42.684;23.356;2022-08-30T12:53:07;13.00;;;10.93;;
5912;SDS011;2982;42.684;23.356;2022-08-30T12:55:42;15.95;;;10.75;;
5912;SDS011;2982;42.684;23.356;2022-08-30T12:58:32;12.35;;;11.00;;
5912;SDS011;2982;42.684;23.356;2022-08-30T13:04:18;12.30;;;11.23;;
5912;SDS011;2982;42.684;23.356;2022-08-30T13:09:22;15.65;;;11.13;;
5912;SDS011;2982;42.684;23.356;2022-08-30T13:11:51;14.07;;;10.57;;
5912;SDS011;2982;42.684;23.356;2022-08-30T13:14:35;15.30;;;11.45;;
5912;SDS011;2982;42.684;23.356;2022-08-30T13:19:34;13.60;;;11.05;;
5912;SDS011;2982;42.684;23.356;2022-08-30T13:22:02;12.55;;;11.48;;
5912;SDS011;2982;42.684;23.356;2022-08-30T13:24:28;14.10;;;11.32;;
5912;SDS011;2982;42.684;23.356;2022-08-30T13:27:03;12.85;;;10.60;;
5912;SDS011;2982;42.684;23.356;2022-08-30T13:29:29;11.93;;;10.90;;
5912;SDS011;2982;42.684;23.356;2022-08-30T13:31:55;15.55;;;10.70;;
5912;SDS011;2982;42.684;23.356;2022-08-30T13:34:20;12.20;;;10.23;;
5912;SDS011;2982;42.684;23.356;2022-08-30T13:36:46;16.02;;;10.98;;
5912;SDS011;2982;42.684;23.356;2022-08-30T13:39:14;13.43;;;10.43;;
5912;SDS011;2982;42.684;23.356;2022-08-30T13:41:39;17.50;;;10.77;;
5912;SDS011;2982;42.684;23.356;2022-08-30T13:44:05;13.00;;;10.75;;
5912;SDS011;2982;42.684;23.356;2022-08-30T13:46:30;12.60;;;10.75;;
5912;SDS011;2982;42.684;23.356;2022-08-30T13:49:17;11.95;;;10.93;;
5912;SDS011;2982;42.684;23.356;2022-08-30T13:51:46;15.23;;;12.00;;
5912;SDS011;2982;42.684;23.356;2022-08-30T13:54:11;13.73;;;10.30;;
5912;SDS011;2982;42.684;23.356;2022-08-30T13:56:37;12.65;;;11.40;;
5912;SDS011;2982;42.684;23.356;2022-08-30T13:59:02;16.73;;;11.27;;
5912;SDS011;2982;42.684;23.356;2022-08-30T14:01:27;14.35;;;10.65;;
5912;SDS011;2982;42.684;23.356;2022-08-30T14:03:53;18.20;;;10.93;;
5912;SDS011;2982;42.684;23.356;2022-08-30T14:06:18;13.73;;;11.85;;
5912;SDS011;2982;42.684;23.356;2022-08-30T14:08:44;12.48;;;10.32;;
5912;SDS011;2982;42.684;23.356;2022-08-30T14:11:10;12.00;;;10.57;;
5912;SDS011;2982;42.684;23.356;2022-08-30T14:13:37;14.00;;;11.60;;
5912;SDS011;2982;42.684;23.356;2022-08-30T14:16:05;11.73;;;9.95;;
5912;SDS011;2982;42.684;23.356;2022-08-30T14:18:32;12.32;;;9.93;;
5912;SDS011;2982;42.684;23.356;2022-08-30T14:20:57;10.93;;;9.80;;
5912;SDS011;2982;42.684;23.356;2022-08-30T14:23:23;14.30;;;10.43;;
5912;SDS011;2982;42.684;23.356;2022-08-30T14:25:48;13.20;;;10.60;;
5912;SDS011;2982;42.684;23.356;2022-08-30T14:28:13;12.27;;;11.05;;
5912;SDS011;2982;42.684;23.356;2022-08-30T14:30:38;14.40;;;10.73;;
5912;SDS011;2982;42.684;23.356;2022-08-30T14:33:04;10.20;;;9.30;;
5912;SDS011;2982;42.684;23.356;2022-08-30T14:35:29;10.85;;;9.20;;
5912;SDS011;2982;42.684;23.356;2022-08-30T14:37:54;11.98;;;9.55;;
5912;SDS011;2982;42.684;23.356;2022-08-30T14:40:20;14.40;;;10.38;;
5912;SDS011;2982;42.684;23.356;2022-08-30T14:42:45;11.40;;;10.60;;
5912;SDS011;2982;42.684;23.356;2022-08-30T14:45:10;11.88;;;10.65;;
5912;SDS011;2982;42.684;23.356;2022-08-30T14:47:36;11.93;;;10.57;;
5912;SDS011;2982;42.684;23.356;2022-08-30T14:50:01;11.73;;;10.60;;
5912;SDS011;2982;42.684;23.356;2022-08-30T14:52:27;11.23;;;10.23;;
5912;SDS011;2982;42.684;23.356;2022-08-30T14:54:53;16.13;;;11.38;;
5912;SDS011;2982;42.684;23.356;2022-08-30T14:57:19;14.52;;;11.68;;
5912;SDS011;2982;42.684;23.356;2022-08-30T14:59:44;12.02;;;11.13;;
5912;SDS011;2982;42.684;23.356;2022-08-30T15:02:09;15.25;;;11.65;;
5912;SDS011;2982;42.684;23.356;2022-08-30T15:04:35;14.90;;;12.48;;
5912;SDS011;2982;42.684;23.356;2022-08-30T15:07:00;13.90;;;11.30;;
5912;SDS011;2982;42.684;23.356;2022-08-30T15:09:26;14.82;;;12.35;;
5912;SDS011;2982;42.684;23.356;2022-08-30T15:11:53;14.27;;;11.73;;
5912;SDS011;2982;42.684;23.356;2022-08-30T15:14:20;12.88;;;11.75;;
5912;SDS011;2982;42.684;23.356;2022-08-30T15:16:45;13.88;;;12.30;;
5912;SDS011;2982;42.684;23.356;2022-08-30T15:19:10;17.25;;;11.60;;
5912;SDS011;2982;42.684;23.356;2022-08-30T15:21:37;12.52;;;11.20;;
5912;SDS011;2982;42.684;23.356;2022-08-30T15:24:07;13.55;;;11.30;;
5912;SDS011;2982;42.684;23.356;2022-08-30T15:26:34;14.50;;;12.25;;
5912;SDS011;2982;42.684;23.356;2022-08-30T15:29:00;12.85;;;11.07;;
5912;SDS011;2982;42.684;23.356;2022-08-30T15:31:26;13.98;;;11.75;;
5912;SDS011;2982;42.684;23.356;2022-08-30T15:33:52;13.55;;;11.77;;
5912;SDS011;2982;42.684;23.356;2022-08-30T15:36:18;20.02;;;11.52;;
5912;SDS011;2982;42.684;23.356;2022-08-30T15:38:43;12.85;;;11.48;;
5912;SDS011;2982;42.684;23.356;2022-08-30T15:41:10;12.73;;;11.40;;
5912;SDS011;2982;42.684;23.356;2022-08-30T15:43:37;12.57;;;11.50;;
5912;SDS011;2982;42.684;23.356;2022-08-30T15:46:44;15.70;;;11.95;;
5912;SDS011;2982;42.684;23.356;2022-08-30T15:49:05;13.05;;;11.85;;
5912;SDS011;2982;42.684;23.356;2022-08-30T15:51:34;13.52;;;11.52;;
5912;SDS011;2982;42.684;23.356;2022-08-30T15:54:00;14.10;;;11.63;;
5912;SDS011;2982;42.684;23.356;2022-08-30T15:56:26;13.20;;;11.32;;
5912;SDS011;2982;42.684;23.356;2022-08-30T15:58:51;12.77;;;11.57;;
5912;SDS011;2982;42.684;23.356;2022-08-30T16:01:17;12.43;;;11.18;;
5912;SDS011;2982;42.684;23.356;2022-08-30T16:03:42;12.63;;;11.05;;